Terminal Aerodrome Forecast
Issued by NWS

Home | Current Version | Previous Version | Text Only | Print | Product List | Glossary On
Versions: 1 2 3 4 5 6 7 8 9 10 11 12 13 14 15 16 17 18 19 20 21 22 23 24 25 26
000
FTUS41 KOKX 190500
TAFGON
TAF
KGON 190520Z 1906/2006 VRB03KT P6SM BKN250
     FM191300 31009KT P6SM FEW060
     FM191600 31014G21KT P6SM SKC
     FM192200 35011KT P6SM SKC
     FM200200 02009KT P6SM SKC=

USA.gov is the U.S. government's official web portal to all federal, state and local government web resources and services.